Terminal Aerodrome Forecast
Issued by NWS Salt Lake City, UT

Home | Current Version | Previous Version | Text Only | Print | Product List | Glossary On
Versions: 1 2 3 4 5 6 7 8 9 10 11 12 13 14 15 16 17 18 19 20 21 22 23 24 25 26 27 28 29 30 31 32 33 34 35 36 37 38 39 40 41 42 43 44 45 46 47 48 49 50
038
FTUS45 KSLC 242045 AAB
TAFSLC
TAF AMD
KSLC 242045Z 2421/2524 18012KT P6SM SCT080 SCT120
     FM250300 16010KT P6SM SCT080 BKN120
     FM250600 16008KT P6SM SCT060 BKN100
     FM251000 16008KT P6SM VCSH SCT030 BKN060
     FM251400 16007KT P6SM -RA SCT020 BKN040
     FM251600 18007KT 5SM -RA BKN010 OVC025
     FM252000 32007KT P6SM -SHRA SCT020 BKN060=

USA.gov is the U.S. government's official web portal to all federal, state and local government web resources and services.